Airfield :
LOGIN :

Register | Disclaimer

   EN    FR    IT 

 










Legend :    VFR   Marginal VFR   IFR   Intensive IFR   Very Intensive IFR
Visi :
Ceiling :
>= 8 km
>= 3000ft
5 to 8 km
1000 to 3000 ft
1500m to 5 km
500 to 1000 ft
800 to 1500m
200 to 500 ft
< 800m
< 200 ft
Symbols :   Thunderstorms  Fog  Heavy snow  Heavy precipitations  Wind > 20 kt
SIGMETs :     Misc.  Thunderstorms  Icing  Turbulence  Mountain Waves  Volcanic Ashes






- Airport Elevation : 162 ft
- IATA code : BOD


LFBD - Bordeaux / Merignac

CURRENT METAR :
  • 192300Z AUTO 11003KT 7000 0700 R23/P2300U R05/1300D R29/P2300 BCFG NSC 05/05 Q1027 TEMPO 3000 BR

EXPIRED METARs :
  • 192230Z AUTO 17001KT 5000 0550 R23/0500D R05/1800N R29/P2300 BCFG NSC 06/05 Q1027 NOSIG
  • 192200Z AUTO 19001KT 7000 0500 R23/0450D R05/0450D R29/P2300 BCFG NSC 06/05 Q1028 TEMPO 3000 BR
  • 192130Z AUTO 00000KT 8000 1600 NSC 07/06 Q1028 TEMPO 3000 BR
  • 192100Z AUTO 21002KT 9999 0700 R23/P2300 R05/1000D R29/P2300 BCFG NSC 07/06 Q1028 TEMPO 3000 BR
  • 192030Z AUTO VRB02KT CAVOK 07/06 Q1028 TEMPO 3000 BR

TAF TAF LFBD
Valid from the 19 at 18:00 until the 21 at 00:00 UTC


191700Z 1918/2024 26007KT CAVOK TX16/2014Z TN04/2005Z
BECMG 1922/1924 15005KT
TEMPO 1922/2010 3000 BR NSC
PROB40 2003/2010 0800 FG VV///
BECMG 2016/2018 26010KT OVC040
TEMPO 2018/2022 3000 RADZ OVC008
BECMG 2020/2022 30007KT
ATIS : +33 5 57 92 81 04



MET'MAP, your aeronautical weather chart ! - Copyright ORBIFLY December 2007 - Disclaimer

ORBIFLY MET'MAP TEAM :

Programming & Development : Alexandra Zaïnal
Concept & original design : Baudouin d'Aumeries
Assistance for programming : Marc-Olivier Méhu
Technical & hardware support : Manuel Goepfert

Contact : metmap@orbifly.com




SOURCES & CREDITS :

   NOAA